Burlington (BTV/KBTV)

Map

Destinations

Information

Location
Burlington, VT
Local Time
06:30 / 6:30 am
GMT Time
10:30 / 10:30 am
Gates
3
No FAA reported delays
METAR KBTV 210954Z 07003KT 10SM FEW080 SCT150 16/14 A2987 RMK AO2 SLP114 VCFG T01610144
TAF KBTV 210533Z 2106/2206 VRB03KT P6SM SKC FM211600 22006KT P6SM SCT040 FM211900 29007KT P6SM VCSH BKN040 FM220000 VRB03KT P6SM SCT040